Airfield :
LOGIN :

Register | Disclaimer

   EN    FR    IT 

 










Legend :    VFR   Marginal VFR   IFR   Intensive IFR   Very Intensive IFR
Visi :
Ceiling :
>= 8 km
>= 3000ft
5 to 8 km
1000 to 3000 ft
1500m to 5 km
500 to 1000 ft
800 to 1500m
200 to 500 ft
< 800m
< 200 ft
Symbols :   Thunderstorms  Fog  Heavy snow  Heavy precipitations  Wind > 20 kt
SIGMETs :     Misc.  Thunderstorms  Icing  Turbulence  Mountain Waves  Volcanic Ashes






- Airport Elevation : 36 ft
- IATA code : LTQ


LFAT - Le Touquet

CURRENT METAR :
  • 182000Z AUTO 00000KT CAVOK 00/M00 Q1032

EXPIRED METARs :
  • 181930Z AUTO 00000KT CAVOK 01/00 Q1031
  • 181900Z AUTO 21001KT CAVOK 01/00 Q1031
  • 181830Z AUTO 00000KT CAVOK 02/01 Q1031
  • 181800Z AUTO 00000KT CAVOK 02/01 Q1030 NOSIG
  • 181730Z AUTO 00000KT CAVOK 03/02 Q1030 NOSIG

TAF TAF LFAT
Valid from the 18 at 15:00 until the 19 at 00:00 UTC


181400Z 1815/1824 31008KT 9999 SCT020
ATIS : +33 3 21 06 62 84



MET'MAP, your aeronautical weather chart ! - Copyright ORBIFLY December 2007 - Disclaimer

ORBIFLY MET'MAP TEAM :

Programming & Development : Alexandra Zaïnal
Concept & original design : Baudouin d'Aumeries
Assistance for programming : Marc-Olivier Méhu
Technical & hardware support : Manuel Goepfert

Contact : metmap@orbifly.com




SOURCES & CREDITS :

   NOAA